Time;durP1;ratioP1;P1;durP2;ratioP2;P2;SDS_P1;SDS_P2;PMS_P1;PMS_P2;Temp;Humidity;BMP_temperature;BMP_pressure;BME280_temperature;BME280_humidity;BME280_pressure;Samples;Min_cycle;Max_cycle;Signal;HPM_P1;HPM_P2
2022/07/27 00:02:40;;;;;;;4.60;1.40;;;;;;;17.57;52.33;98900.30;104222;1296;22652;-87
2022/07/27 00:05:21;;;;;;;3.80;1.10;;;;;;;17.57;52.54;98901.73;104296;1294;25601;-86
2022/07/27 00:08:05;;;;;;;6.00;1.40;;;;;;;17.58;52.55;98899.47;104698;1290;24214;-88
2022/07/27 00:10:51;;;;;;;4.60;1.30;;;;;;;17.60;52.48;98897.52;105021;1287;22593;-87
2022/07/27 00:13:45;;;;;;;5.70;1.50;;;;;;;17.54;52.57;98896.77;105031;1287;25488;-89
2022/07/27 00:16:30;;;;;;;4.50;1.70;;;;;;;17.55;52.76;98899.41;105415;1279;22703;-86
2022/07/27 00:19:10;;;;;;;3.20;1.20;;;;;;;17.57;52.87;98900.81;105785;1282;24108;-88
2022/07/27 00:22:31;;;;;;;5.10;1.10;;;;;;;17.57;52.80;98900.67;105840;1281;23958;-86
2022/07/27 00:25:03;;;;;;;5.70;1.30;;;;;;;17.57;52.93;98897.77;105763;1279;25494;-86
2022/07/27 00:27:49;;;;;;;4.40;1.20;;;;;;;17.53;52.92;98892.58;105714;1281;25480;-87
2022/07/27 00:30:49;;;;;;;5.80;1.60;;;;;;;17.44;53.03;98895.89;105801;1279;24332;-88
2022/07/27 00:33:34;;;;;;;4.10;1.50;;;;;;;17.29;53.21;98898.54;105727;1281;24253;-87
2022/07/27 00:36:16;;;;;;;6.40;1.60;;;;;;;17.19;53.34;98901.88;105798;1279;22543;-89
2022/07/27 00:38:58;;;;;;;5.80;1.50;;;;;;;17.14;53.56;98902.58;105742;1279;22570;-87
2022/07/27 00:41:39;;;;;;;5.30;1.60;;;;;;;17.10;53.56;98906.18;105777;1280;24264;-91
2022/07/27 00:44:45;;;;;;;2.50;1.20;;;;;;;17.11;53.81;98913.13;105824;1279;22573;-85
2022/07/27 00:47:44;;;;;;;4.80;1.40;;;;;;;17.13;53.90;98912.92;105835;1279;25483;-87
2022/07/27 00:50:22;;;;;;;4.70;1.30;;;;;;;17.14;54.03;98909.59;105780;1281;25446;-87
2022/07/27 00:53:12;;;;;;;4.20;1.50;;;;;;;17.15;54.07;98906.27;105837;1280;22661;-86
2022/07/27 00:55:54;;;;;;;4.70;1.40;;;;;;;17.18;54.07;98907.34;105773;1279;22591;-87
2022/07/27 00:58:38;;;;;;;4.40;1.40;;;;;;;17.23;54.10;98914.42;105788;1281;22544;-86
2022/07/27 01:01:27;;;;;;;3.40;1.30;;;;;;;17.26;54.14;98914.63;105829;1280;23389;-86
2022/07/27 01:04:10;;;;;;;7.10;1.40;;;;;;;17.26;54.25;98910.70;105854;1279;24214;-87
2022/07/27 01:06:48;;;;;;;4.40;1.50;;;;;;;17.24;54.26;98912.65;105845;1279;24252;-86
2022/07/27 01:12:35;;;;;;;3.40;1.10;;;;;;;17.33;54.42;98908.16;105750;1279;24317;-88
2022/07/27 01:15:12;;;;;;;2.80;1.10;;;;;;;17.38;54.46;98905.47;105857;1279;25336;-86
2022/07/27 01:18:02;;;;;;;3.40;1.10;;;;;;;17.39;54.52;98902.91;105681;1279;25355;-86
2022/07/27 01:20:42;;;;;;;5.40;1.30;;;;;;;17.43;54.54;98898.13;105810;1279;25395;-86
2022/07/27 01:23:19;;;;;;;4.20;1.30;;;;;;;17.48;54.65;98895.77;105770;1278;25363;-87
2022/07/27 01:26:38;;;;;;;2.60;1.10;;;;;;;17.46;54.65;98900.63;105803;1279;26467;-88
2022/07/27 01:29:24;;;;;;;7.50;1.40;;;;;;;17.40;54.72;98902.41;105812;1279;22727;-89
2022/07/27 01:32:25;;;;;;;7.80;1.50;;;;;;;17.31;54.69;98907.84;105843;1279;24324;-87
2022/07/27 01:35:07;;;;;;;4.90;1.20;;;;;;;17.23;54.88;98909.19;105796;1279;24223;-88
2022/07/27 01:37:53;;;;;;;3.30;1.30;;;;;;;17.18;54.93;98921.23;105880;1279;23168;-87
2022/07/27 01:40:39;;;;;;;5.20;1.60;;;;;;;17.12;54.94;98918.05;105783;1279;22572;-88
2022/07/27 01:43:19;;;;;;;5.80;1.40;;;;;;;17.07;55.08;98920.73;105616;1279;24301;-87
2022/07/27 01:45:54;;;;;;;4.30;1.20;;;;;;;17.02;55.13;98920.98;105862;1277;22583;-86
2022/07/27 01:48:43;;;;;;;4.70;1.30;;;;;;;17.05;55.34;98919.70;105925;1279;25380;-87
2022/07/27 01:51:38;;;;;;;;;;;;;;;;;;;;;
2022/07/27 01:54:19;;;;;;;4.10;1.20;;;;;;;17.03;55.44;98924.27;105897;1279;24434;-90
2022/07/27 01:57:22;;;;;;;4.10;1.30;;;;;;;17.05;55.44;98925.07;105842;1279;22633;-87
2022/07/27 02:00:04;;;;;;;9.10;1.50;;;;;;;17.05;55.47;98923.64;105959;1279;22581;-91
2022/07/27 02:02:52;;;;;;;7.90;1.70;;;;;;;17.01;55.53;98921.05;105809;1279;22560;-87
2022/07/27 02:05:30;;;;;;;7.60;1.50;;;;;;;16.97;55.72;98918.25;105454;1279;25246;-86
2022/07/27 02:08:14;;;;;;;8.00;1.60;;;;;;;16.92;55.64;98923.27;105820;1279;25349;-87
2022/07/27 02:15:00;;;;;;;7.50;1.90;;;;;;;16.85;56.00;98919.67;105857;1279;22618;-88
2022/07/27 02:17:39;;;;;;;4.40;1.40;;;;;;;16.81;55.92;98923.86;105951;1279;22721;-88
2022/07/27 02:20:29;;;;;;;4.60;1.60;;;;;;;16.84;56.12;98923.41;105787;1281;22714;-86
2022/07/27 02:23:30;;;;;;;6.30;1.60;;;;;;;16.90;56.21;98917.91;105842;1279;22664;-88
2022/07/27 02:26:28;;;;;;;4.70;1.60;;;;;;;16.97;56.19;98922.99;105816;1279;25518;-86
2022/07/27 02:29:53;;;;;;;;;;;;;;;;;;;;;
2022/07/27 02:32:53;;;;;;;6.40;1.50;;;;;;;17.06;56.24;98919.21;105948;1279;25352;-85
2022/07/27 02:36:28;;;;;;;;;;;;;;;;;;;;;
2022/07/27 02:39:22;;;;;;;4.50;1.50;;;;;;;17.10;56.40;98922.20;105776;1279;22537;-86
2022/07/27 02:45:56;;;;;;;;;;;;;;;;;;;;;
2022/07/27 02:49:16;;;;;;;4.40;1.10;;;;;;;17.08;56.46;98923.84;105762;1279;25465;-87
2022/07/27 02:52:19;;;;;;;3.60;1.30;;;;;;;17.16;56.57;98927.75;105810;1277;23106;-88
2022/07/27 02:55:11;;;;;;;6.40;1.40;;;;;;;17.20;56.56;98932.55;105861;1279;22553;-87
2022/07/27 02:59:09;;;;;;;3.50;1.30;;;;;;;17.21;56.59;98934.58;105694;1279;23069;-86
2022/07/27 03:02:28;;;;;;;4.80;1.30;;;;;;;17.25;56.71;98937.08;105040;1287;25444;-87
2022/07/27 03:06:04;;;;;;;4.20;1.50;;;;;;;17.30;56.68;98939.38;105035;1287;25241;-86
2022/07/27 03:08:48;;;;;;;3.70;1.40;;;;;;;17.34;56.74;98942.41;104415;1294;24315;-90
2022/07/27 03:12:11;;;;;;;4.50;1.30;;;;;;;17.34;56.80;98946.39;104250;1294;25320;-88
2022/07/27 03:15:31;;;;;;;5.30;1.40;;;;;;;17.34;56.73;98945.65;104302;1291;24303;-87
2022/07/27 03:19:05;;;;;;;;;;;;;;;;;;;;;
2022/07/27 03:22:38;;;;;;;4.00;1.30;;;;;;;17.40;56.76;98930.85;103667;1302;25348;-86
2022/07/27 03:25:55;;;;;;;;;;;;;;;;;;;;;
2022/07/27 03:30:00;;;;;;;5.30;1.30;;;;;;;17.52;56.77;98936.82;103353;1306;22577;-89
2022/07/27 03:33:32;;;;;;;;;;;;;;;;;;;;;
2022/07/27 03:36:51;;;;;;;;;;;;;;;;;;;;;
2022/07/27 03:43:53;;;;;;;;;;;;;;;;;;;;;
2022/07/27 03:48:03;;;;;;;10.00;1.80;;;;;;;17.48;57.21;98920.61;103089;1308;25397;-85
2022/07/27 03:50:43;;;;;;;5.60;1.40;;;;;;;17.48;57.25;98925.64;103357;1305;22577;-88
2022/07/27 03:54:12;;;;;;;;;;;;;;;;;;;;;
2022/07/27 03:57:01;;;;;;;7.30;1.70;;;;;;;17.57;57.20;98922.41;103495;1305;24550;-87
2022/07/27 03:59:54;;;;;;;5.40;1.50;;;;;;;17.66;57.28;98919.12;103799;1300;22564;-86
2022/07/27 04:03:11;;;;;;;9.20;1.70;;;;;;;17.71;57.39;98919.92;104007;1299;23224;-87
2022/07/27 04:06:11;;;;;;;6.40;1.40;;;;;;;17.76;57.39;98914.36;104180;1296;24369;-86
2022/07/27 04:09:39;;;;;;;;;;;;;;;;;;;;;
2022/07/27 04:12:18;;;;;;;8.80;1.50;;;;;;;17.80;57.48;98907.42;104325;1294;26503;-87
2022/07/27 04:15:18;;;;;;;12.50;2.00;;;;;;;17.81;57.48;98909.10;104441;1294;22557;-88
2022/07/27 04:18:21;;;;;;;18.40;2.70;;;;;;;17.83;57.56;98904.58;105037;1287;22576;-86
2022/07/27 04:21:07;;;;;;;;;;;;;;;;;;;;;
2022/07/27 04:24:09;;;;;;;11.30;2.30;;;;;;;18.00;57.60;98897.91;105832;1281;24208;-86
2022/07/27 04:26:58;;;;;;;18.70;2.60;;;;;;;18.16;57.70;98896.63;105792;1281;24101;-87
2022/07/27 04:29:44;;;;;;;12.00;2.10;;;;;;;18.30;57.58;98896.62;105830;1281;22554;-88
2022/07/27 04:32:36;;;;;;;8.40;2.10;;;;;;;18.43;57.60;98896.63;105842;1279;22570;-87
2022/07/27 04:35:21;;;;;;;6.60;2.20;;;;;;;18.58;57.68;98898.39;105741;1279;25583;-86
2022/07/27 04:37:53;;;;;;;9.40;2.20;;;;;;;18.67;57.65;98887.79;105773;1278;22724;-87
2022/07/27 04:40:34;;;;;;;6.70;1.60;;;;;;;18.66;57.55;98896.52;105708;1279;22544;-86
2022/07/27 04:43:17;;;;;;;6.60;1.80;;;;;;;18.69;57.62;98903.27;105810;1279;22564;-88
2022/07/27 04:46:23;;;;;;;;;;;;;;;;;;;;;
2022/07/27 04:48:56;;;;;;;6.20;1.40;;;;;;;18.78;57.26;98902.42;105793;1279;22554;-91
2022/07/27 04:51:26;;;;;;;6.60;1.00;;;;;;;18.70;56.98;98907.11;105932;1277;22573;-87
2022/07/27 04:54:10;;;;;;;5.70;0.80;;;;;;;18.62;56.96;98906.23;105797;1279;22590;-87
2022/07/27 04:56:42;;;;;;;3.00;0.90;;;;;;;18.57;56.99;98907.69;105789;1279;24509;-88
2022/07/27 04:59:18;;;;;;;3.70;0.80;;;;;;;18.54;56.91;98916.13;105838;1279;26459;-88
2022/07/27 05:01:57;;;;;;;3.00;0.90;;;;;;;18.49;56.81;98916.73;105742;1279;22686;-86
2022/07/27 05:04:27;;;;;;;3.20;1.20;;;;;;;18.39;56.93;98921.76;105842;1279;22545;-87
2022/07/27 05:07:10;;;;;;;3.70;0.80;;;;;;;18.36;56.94;98922.45;105714;1279;23401;-86
2022/07/27 05:09:52;;;;;;;4.70;1.00;;;;;;;18.28;56.91;98927.96;105761;1279;24346;-90
2022/07/27 05:12:24;;;;;;;4.60;1.20;;;;;;;18.28;57.03;98931.28;105737;1278;24211;-87
2022/07/27 05:15:07;;;;;;;4.90;1.00;;;;;;;18.26;56.85;98934.29;105844;1277;25294;-89
2022/07/27 05:17:46;;;;;;;4.70;0.90;;;;;;;18.30;57.03;98933.04;105841;1279;24085;-88
2022/07/27 05:20:32;;;;;;;5.70;0.90;;;;;;;18.39;57.04;98934.34;105727;1279;24085;-87
2022/07/27 05:23:07;;;;;;;4.90;0.90;;;;;;;18.50;56.98;98936.23;105662;1279;22609;-87
2022/07/27 05:25:44;;;;;;;5.50;0.90;;;;;;;18.60;57.07;98939.50;105610;1279;22554;-88
2022/07/27 05:28:13;;;;;;;3.70;0.90;;;;;;;18.63;56.63;98943.82;105717;1279;25535;-87
2022/07/27 05:31:20;;;;;;;3.20;1.00;;;;;;;18.57;56.67;98945.92;105687;1281;22763;-88
2022/07/27 05:34:07;;;;;;;5.70;1.20;;;;;;;18.59;57.07;98952.42;105676;1281;22707;-87
2022/07/27 05:36:46;;;;;;;5.60;1.00;;;;;;;18.63;57.05;98956.41;105822;1281;25362;-87
2022/07/27 05:39:28;;;;;;;4.20;1.10;;;;;;;18.62;56.74;98956.02;105586;1281;25304;-86
2022/07/27 05:42:12;;;;;;;5.90;1.10;;;;;;;18.54;56.78;98961.83;105542;1281;24396;-87
2022/07/27 05:45:03;;;;;;;4.70;1.80;;;;;;;18.51;56.90;98966.21;105754;1281;22611;-87
2022/07/27 05:47:36;;;;;;;3.70;1.10;;;;;;;18.47;56.76;98970.99;105786;1281;22692;-91
2022/07/27 05:50:26;;;;;;;5.20;1.10;;;;;;;18.44;56.73;98972.64;105817;1281;23846;-87
2022/07/27 05:53:26;;;;;;;5.20;1.20;;;;;;;18.41;56.71;98977.77;105806;1279;22849;-88
2022/07/27 05:56:22;;;;;;;5.00;1.10;;;;;;;18.42;56.76;98976.80;105660;1282;22554;-88
2022/07/27 05:59:07;;;;;;;2.90;0.90;;;;;;;18.44;56.71;98978.18;105735;1281;24414;-90
2022/07/27 06:02:26;;;;;;;;;;;;;;;;;;;;;
2022/07/27 06:05:13;;;;;;;4.00;0.90;;;;;;;18.43;56.79;98981.59;105761;1281;22718;-90
2022/07/27 06:08:08;;;;;;;4.60;1.10;;;;;;;18.41;56.77;98986.86;105761;1281;26669;-88
2022/07/27 06:11:00;;;;;;;4.90;1.20;;;;;;;18.33;56.87;98988.55;105736;1279;25032;-89
2022/07/27 06:14:07;;;;;;;5.10;1.10;;;;;;;18.32;57.01;98989.75;105906;1279;24534;-88
2022/07/27 06:16:58;;;;;;;6.50;0.90;;;;;;;18.38;57.01;98992.89;105763;1281;22632;-90
2022/07/27 06:19:50;;;;;;;5.30;1.10;;;;;;;18.35;56.83;98986.66;105626;1282;23969;-87
2022/07/27 06:22:56;;;;;;;;;;;;;;;;;;;;;
2022/07/27 06:26:01;;;;;;;4.70;1.20;;;;;;;18.46;57.09;98985.05;105795;1281;26492;-88
2022/07/27 06:28:49;;;;;;;4.70;1.10;;;;;;;18.48;56.78;98985.33;105939;1277;22543;-87
2022/07/27 06:32:47;;;;;;;10.00;1.40;;;;;;;18.56;56.93;98988.98;105873;1279;22509;-88
2022/07/27 06:35:12;;;;;;;7.40;1.50;;;;;;;18.65;56.82;98995.45;105043;1287;22814;-88
2022/07/27 06:38:18;;;;;;;11.00;1.40;;;;;;;18.74;56.69;98999.53;105049;1287;25272;-89
2022/07/27 06:41:07;;;;;;;5.00;1.20;;;;;;;18.79;56.57;99000.80;105180;1286;23945;-88
2022/07/27 06:44:12;;;;;;;7.10;1.50;;;;;;;18.85;56.57;98999.06;105217;1287;24232;-87
2022/07/27 06:47:10;;;;;;;;;;;;;;;;;;;;;
2022/07/27 06:49:53;;;;;;;7.80;1.70;;;;;;;18.92;56.33;99003.69;105166;1288;21947;-85
2022/07/27 06:53:07;;;;;;;;;;;;;;;;;;;;;
2022/07/27 06:56:52;;;;;;;;;;;;;;;;;;;;;
2022/07/27 07:00:22;;;;;;;7.30;1.30;;;;;;;19.80;56.61;98989.64;105027;1287;23984;-88
2022/07/27 07:03:54;;;;;;;6.70;1.40;;;;;;;19.93;56.13;98991.35;105034;1288;22573;-86
2022/07/27 07:07:21;;;;;;;8.90;1.30;;;;;;;20.03;56.40;98988.66;104427;1291;25242;-87
2022/07/27 07:10:38;;;;;;;;;;;;;;;;;;;;;
2022/07/27 07:14:16;;;;;;;;;;;;;;;;;;;;;
2022/07/27 07:17:21;;;;;;;;;;;;;;;;;;;;;
2022/07/27 07:21:15;;;;;;;;;;;;;;;;;;;;;
2022/07/27 07:24:39;;;;;;;;;;;;;;;;;;;;;
2022/07/27 07:32:21;;;;;;;6.10;1.30;;;;;;;21.55;55.56;98994.73;103122;1306;24308;-89
2022/07/27 07:35:41;;;;;;;;;;;;;;;;;;;;;
2022/07/27 07:38:56;;;;;;;;;;;;;;;;;;;;;
2022/07/27 07:42:22;;;;;;;;;;;;;;;;;;;;;
2022/07/27 07:45:55;;;;;;;;;;;;;;;;;;;;;
2022/07/27 07:49:21;;;;;;;6.30;1.20;;;;;;;22.00;54.59;98999.67;101790;1320;24169;-88
2022/07/27 07:52:22;;;;;;;6.10;1.10;;;;;;;22.05;53.48;98996.17;101939;1320;22808;-91
2022/07/27 07:55:57;;;;;;;;;;;;;;;;;;;;;
2022/07/27 07:59:04;;;;;;;;;;;;;;;;;;;;;
2022/07/27 08:02:02;;;;;;;13.30;1.20;;;;;;;22.85;53.52;98995.67;104588;1303;22619;-91
2022/07/27 08:04:59;;;;;;;5.40;1.10;;;;;;;22.97;53.23;98994.79;104063;1303;23935;-90
2022/07/27 08:08:12;;;;;;;9.00;1.30;;;;;;;23.08;53.42;98999.70;105203;1306;22608;-92
2022/07/27 08:10:56;;;;;;;8.00;1.10;;;;;;;23.26;52.91;99007.20;104828;1303;25392;-90
2022/07/27 08:14:00;;;;;;;5.60;0.80;;;;;;;23.07;52.29;99012.52;103721;1303;22711;-91
2022/07/27 08:16:59;;;;;;;8.20;0.80;;;;;;;22.67;52.35;99015.41;104696;1300;26796;-90
2022/07/27 08:20:02;;;;;;;6.10;1.00;;;;;;;22.56;52.37;99019.75;104943;1300;22882;-90
2022/07/27 08:23:06;;;;;;;6.20;1.00;;;;;;;22.47;52.00;99014.60;105685;1287;24145;-92
2022/07/27 08:26:39;;;;;;;6.10;1.10;;;;;;;22.41;52.67;99016.81;105948;1287;24014;-92
2022/07/27 08:29:27;;;;;;;7.50;1.20;;;;;;;22.30;51.59;99024.19;105118;1291;22576;-88
2022/07/27 08:32:10;;;;;;;8.10;1.00;;;;;;;22.10;52.42;99030.20;106050;1291;24370;-91
2022/07/27 08:35:20;;;;;;;6.50;1.10;;;;;;;22.19;52.43;99033.10;105795;1291;22625;-91
2022/07/27 08:39:14;;;;;;;9.20;1.30;;;;;;;22.05;52.32;99032.42;106339;1290;22767;-92
2022/07/27 08:41:57;;;;;;;;;;;;;;;;;;;;;
2022/07/27 08:45:43;;;;;;;;;;;;;;;;;;;;;
2022/07/27 08:48:44;;;;;;;9.20;1.40;;;;;;;21.69;52.63;99043.52;107408;1290;22690;-93
2022/07/27 08:51:47;;;;;;;7.40;1.50;;;;;;;22.18;52.64;99039.44;106939;1290;22803;-90
2022/07/27 08:59:24;;;;;;;9.90;1.30;;;;;;;22.75;52.61;99033.13;106994;1284;22675;-89
2022/07/27 09:02:21;;;;;;;4.50;1.10;;;;;;;22.78;51.73;99031.72;106380;1284;22733;-89
2022/07/27 09:05:17;;;;;;;7.90;1.40;;;;;;;22.48;51.29;99040.48;106543;1284;22588;-91
2022/07/27 09:08:26;;;;;;;8.10;1.40;;;;;;;22.22;51.82;99044.39;106019;1284;22578;-89
2022/07/27 09:11:16;;;;;;;8.60;1.70;;;;;;;22.11;51.71;99046.78;105550;1285;22711;-90
2022/07/27 09:14:11;;;;;;;6.40;1.50;;;;;;;21.92;51.66;99042.84;105230;1285;22641;-88
2022/07/27 09:16:59;;;;;;;8.90;1.60;;;;;;;21.61;51.61;99045.27;105907;1285;22641;-91
2022/07/27 09:20:00;;;;;;;7.20;1.40;;;;;;;21.42;51.81;99044.90;105942;1284;22610;-90
2022/07/27 09:23:32;;;;;;;6.30;1.60;;;;;;;21.23;51.72;99042.55;106613;1285;24612;-87
2022/07/27 09:26:34;;;;;;;7.60;1.70;;;;;;;21.29;51.80;99038.01;106057;1284;24226;-90
2022/07/27 09:29:37;;;;;;;7.00;1.40;;;;;;;21.28;51.62;99036.82;106111;1281;22797;-89
2022/07/27 09:32:20;;;;;;;5.30;1.10;;;;;;;21.37;51.76;99039.83;106182;1281;22554;-89
2022/07/27 09:35:44;;;;;;;5.90;1.40;;;;;;;21.50;51.74;99036.92;107101;1281;22594;-93
2022/07/27 09:39:02;;;;;;;8.00;1.20;;;;;;;21.48;51.48;99044.48;105277;1287;22950;-91
2022/07/27 09:42:03;;;;;;;9.40;1.30;;;;;;;21.62;51.55;99044.65;105701;1287;24361;-91
2022/07/27 09:44:58;;;;;;;6.50;1.40;;;;;;;21.89;51.74;99043.04;105855;1287;24648;-91
2022/07/27 09:47:33;;;;;;;12.00;1.60;;;;;;;21.93;51.04;99040.39;105701;1287;22562;-90
2022/07/27 09:50:58;;;;;;;5.50;1.30;;;;;;;21.80;50.93;99040.98;105232;1287;22494;-90
2022/07/27 09:54:15;;;;;;;;;;;;;;;;;;;;;
2022/07/27 09:57:36;;;;;;;;;;;;;;;;;;;;;
2022/07/27 10:00:35;;;;;;;7.30;1.00;;;;;;;21.66;50.88;99038.91;105424;1288;22597;-90
2022/07/27 10:03:24;;;;;;;5.20;1.00;;;;;;;21.84;50.72;99035.13;105840;1287;22655;-92
2022/07/27 10:06:30;;;;;;;;;;;;;;;;;;;;;
2022/07/27 10:09:33;;;;;;;9.20;1.40;;;;;;;21.75;50.84;99039.13;104920;1287;25903;-89
2022/07/27 10:12:36;;;;;;;7.20;0.90;;;;;;;22.03;50.73;99042.47;105195;1290;25579;-91
2022/07/27 10:16:09;;;;;;;;;;;;;;;;;;;;;
2022/07/27 10:19:52;;;;;;;;;;;;;;;;;;;;;
2022/07/27 10:23:24;;;;;;;6.80;1.00;;;;;;;21.97;50.47;99045.05;107399;1279;22732;-90
2022/07/27 10:26:20;;;;;;;9.30;1.30;;;;;;;22.23;50.07;99038.67;106506;1281;22748;-92
2022/07/27 10:29:29;;;;;;;7.40;1.20;;;;;;;22.34;50.06;99029.31;106195;1281;22803;-90
2022/07/27 10:32:43;;;;;;;9.20;1.10;;;;;;;22.48;49.64;99028.92;106557;1280;22661;-91
2022/07/27 10:36:09;;;;;;;7.00;1.00;;;;;;;22.46;49.54;99030.91;106556;1284;22647;-89
2022/07/27 10:39:42;;;;;;;;;;;;;;;;;;;;;
2022/07/27 10:43:15;;;;;;;8.40;1.20;;;;;;;22.40;49.14;99030.44;106379;1284;24223;-89
2022/07/27 10:46:16;;;;;;;;;;;;;;;;;;;;;
2022/07/27 10:49:56;;;;;;;6.70;1.40;;;;;;;22.13;48.61;99038.52;106339;1282;26492;-90
2022/07/27 10:53:58;;;;;;;9.00;0.80;;;;;;;22.26;49.17;99044.60;106141;1287;24142;-91
2022/07/27 10:57:24;;;;;;;;;;;;;;;;;;;;;
2022/07/27 11:01:31;;;;;;;9.60;1.00;;;;;;;22.01;48.51;99052.15;107225;1287;22553;-92
2022/07/27 11:04:05;;;;;;;5.90;0.90;;;;;;;22.00;48.94;99047.16;107966;1267;24241;-90
2022/07/27 11:07:28;;;;;;;;;;;;;;;;;;;;;
2022/07/27 11:10:41;;;;;;;7.80;0.90;;;;;;;22.11;48.48;99044.27;108613;1277;22534;-89
2022/07/27 11:14:20;;;;;;;5.60;0.80;;;;;;;22.16;48.25;99043.64;107848;1278;23138;-90
2022/07/27 11:18:07;;;;;;;6.90;1.20;;;;;;;22.02;47.87;99044.42;107151;1277;22873;-90
2022/07/27 11:21:40;;;;;;;7.30;1.20;;;;;;;21.82;48.44;99045.85;106896;1290;24004;-92
2022/07/27 11:25:08;;;;;;;6.00;0.90;;;;;;;21.83;47.82;99047.38;104746;1297;26527;-90
2022/07/27 11:28:36;;;;;;;7.00;1.10;;;;;;;21.55;47.91;99055.86;104723;1303;22777;-87
2022/07/27 11:32:34;;;;;;;8.10;1.20;;;;;;;21.32;47.79;99058.85;104396;1302;25858;-90
2022/07/27 11:35:44;;;;;;;;;;;;;;;;;;;;;
2022/07/27 11:38:39;;;;;;;;;;;;;;;;;;;;;
2022/07/27 11:42:00;;;;;;;10.30;1.10;;;;;;;21.15;48.11;99060.45;107871;1278;23942;-86
2022/07/27 11:44:57;;;;;;;6.70;1.20;;;;;;;21.13;48.07;99058.66;107173;1279;22544;-90
2022/07/27 11:48:08;;;;;;;6.30;1.00;;;;;;;21.04;47.80;99067.02;107248;1278;24257;-92
2022/07/27 11:51:13;;;;;;;9.70;1.10;;;;;;;21.01;48.10;99060.63;107552;1278;24246;-92
2022/07/27 11:54:05;;;;;;;7.10;1.00;;;;;;;21.04;47.99;99064.18;107675;1277;22628;-90
2022/07/27 11:57:20;;;;;;;5.70;1.10;;;;;;;21.00;47.90;99066.39;107297;1278;22511;-91
2022/07/27 12:00:03;;;;;;;8.40;1.10;;;;;;;20.91;47.91;99067.55;107181;1278;22550;-90
2022/07/27 12:03:12;;;;;;;9.20;1.50;;;;;;;20.94;47.86;99068.90;107034;1278;24228;-92
2022/07/27 12:05:58;;;;;;;9.50;1.10;;;;;;;20.74;47.66;99060.12;108012;1281;24226;-92
2022/07/27 12:08:48;;;;;;;13.90;1.80;;;;;;;20.64;47.66;99060.73;105866;1281;22577;-90
2022/07/27 12:11:55;;;;;;;7.00;1.20;;;;;;;20.67;48.20;99056.79;106111;1281;22606;-90
2022/07/27 12:14:42;;;;;;;10.50;1.40;;;;;;;20.81;48.19;99055.52;105837;1281;22504;-91
2022/07/27 12:17:41;;;;;;;7.00;1.20;;;;;;;20.79;47.83;99059.52;106837;1282;22544;-90
2022/07/27 12:20:35;;;;;;;11.40;1.50;;;;;;;20.72;47.60;99060.16;106914;1281;22771;-91
2022/07/27 12:23:14;;;;;;;6.80;1.10;;;;;;;20.65;47.82;99057.17;106746;1281;22584;-90
2022/07/27 12:25:55;;;;;;;7.20;0.90;;;;;;;20.55;47.63;99050.14;106168;1281;22903;-91
2022/07/27 12:28:35;;;;;;;9.30;1.20;;;;;;;20.43;47.34;99043.92;106170;1281;22553;-91
2022/07/27 12:31:38;;;;;;;5.60;1.00;;;;;;;20.37;47.82;99036.71;106113;1282;24229;-90
2022/07/27 12:34:56;;;;;;;11.20;1.40;;;;;;;20.39;47.77;99031.21;106641;1281;22444;-91
2022/07/27 12:37:52;;;;;;;8.50;1.20;;;;;;;20.37;47.56;99035.63;105884;1284;23921;-90
2022/07/27 12:40:35;;;;;;;8.10;1.00;;;;;;;20.32;47.78;99039.30;105874;1281;22557;-89
2022/07/27 12:43:27;;;;;;;8.60;1.30;;;;;;;20.33;47.86;99039.30;106317;1281;22570;-90
2022/07/27 12:46:42;;;;;;;6.30;1.10;;;;;;;20.31;47.75;99043.91;105958;1281;23882;-89
2022/07/27 12:49:39;;;;;;;8.40;1.30;;;;;;;20.26;47.48;99047.52;106654;1281;23930;-91
2022/07/27 12:52:24;;;;;;;6.30;0.80;;;;;;;20.27;47.91;99049.13;106873;1281;24221;-91
2022/07/27 12:55:31;;;;;;;8.60;1.00;;;;;;;20.38;47.64;99049.73;106469;1281;22603;-92
2022/07/27 12:58:36;;;;;;;9.40;1.10;;;;;;;20.38;47.53;99048.80;106717;1281;24101;-92
2022/07/27 13:01:31;;;;;;;9.70;1.20;;;;;;;20.36;47.57;99052.70;106017;1281;25935;-88
2022/07/27 13:04:08;;;;;;;5.80;0.90;;;;;;;20.38;47.65;99054.81;106082;1282;22560;-88
2022/07/27 13:07:17;;;;;;;;;;;;;;;;;;;;;
2022/07/27 13:10:59;;;;;;;7.20;1.00;;;;;;;20.33;47.41;99047.80;105843;1280;22694;-90
2022/07/27 13:13:23;;;;;;;9.30;1.30;;;;;;;20.25;47.56;99047.67;106216;1281;22740;-91
2022/07/27 13:16:16;;;;;;;5.40;0.90;;;;;;;20.28;47.62;99041.80;105670;1282;24154;-91
2022/07/27 13:18:54;;;;;;;6.30;1.30;;;;;;;20.38;47.53;99041.48;105822;1281;22608;-90
2022/07/27 13:21:47;;;;;;;9.40;1.10;;;;;;;20.41;47.48;99041.02;106465;1281;22771;-91
2022/07/27 13:24:57;;;;;;;7.90;1.00;;;;;;;20.46;47.54;99041.09;105858;1281;24277;-93
2022/07/27 13:27:52;;;;;;;7.40;1.00;;;;;;;20.49;47.42;99042.88;106564;1281;25438;-90
2022/07/27 13:31:00;;;;;;;7.00;1.60;;;;;;;20.46;47.41;99049.35;106180;1281;22877;-90
2022/07/27 13:34:07;;;;;;;8.50;2.00;;;;;;;20.40;47.44;99049.67;106972;1281;22598;-91
2022/07/27 13:37:05;;;;;;;12.30;6.50;;;;;;;20.39;47.50;99049.41;106037;1281;23050;-89
2022/07/27 13:40:08;;;;;;;12.70;4.50;;;;;;;20.29;47.33;99049.33;105836;1281;24199;-91
2022/07/27 13:43:21;;;;;;;9.90;2.80;;;;;;;20.15;47.11;99050.17;106172;1281;22510;-89
2022/07/27 13:46:16;;;;;;;8.60;1.80;;;;;;;20.06;47.17;99055.64;106191;1281;22674;-90
2022/07/27 13:48:53;;;;;;;9.00;2.20;;;;;;;19.98;47.11;99057.69;105693;1281;25439;-89
2022/07/27 13:51:43;;;;;;;9.60;2.60;;;;;;;19.90;47.31;99061.30;105706;1281;24991;-90
2022/07/27 13:54:49;;;;;;;9.70;2.50;;;;;;;19.89;47.39;99064.38;107486;1281;25371;-89
2022/07/27 13:57:22;;;;;;;9.30;2.00;;;;;;;19.93;47.41;99072.99;106166;1281;22551;-88
2022/07/27 14:00:26;;;;;;;9.30;1.60;;;;;;;19.88;47.42;99071.67;106895;1281;22562;-91
2022/07/27 14:03:49;;;;;;;17.70;1.70;;;;;;;19.81;47.70;99073.71;107601;1281;22568;-91
2022/07/27 14:06:45;;;;;;;8.90;1.30;;;;;;;19.76;47.84;99083.05;107088;1281;22658;-91
2022/07/27 14:10:30;;;;;;;8.50;1.30;;;;;;;19.72;48.05;99081.86;107330;1281;22542;-91
2022/07/27 14:12:45;;;;;;;8.80;1.10;;;;;;;19.70;48.04;99081.86;107206;1281;24025;-89
2022/07/27 14:16:18;;;;;;;;;;;;;;;;;;;;;
2022/07/27 14:19:11;;;;;;;7.60;1.20;;;;;;;19.58;47.90;99081.80;105532;1281;26473;-89
2022/07/27 14:22:04;;;;;;;9.00;1.30;;;;;;;19.62;48.03;99080.77;105708;1281;24228;-92
2022/07/27 14:25:26;;;;;;;6.50;1.00;;;;;;;19.72;48.27;99080.08;105997;1281;24175;-89
2022/07/27 14:28:19;;;;;;;9.10;1.20;;;;;;;19.84;48.18;99078.14;106738;1281;22815;-90
2022/07/27 14:31:18;;;;;;;8.30;1.20;;;;;;;19.87;47.99;99078.28;106664;1280;24098;-90
2022/07/27 14:34:08;;;;;;;6.50;1.30;;;;;;;19.79;47.85;99083.48;106251;1281;22499;-90
2022/07/27 14:37:20;;;;;;;11.60;1.40;;;;;;;19.58;48.05;99077.94;106448;1281;23051;-90
2022/07/27 14:40:39;;;;;;;;;;;;;;;;;;;;;
2022/07/27 14:43:50;;;;;;;9.10;1.30;;;;;;;19.45;48.24;99081.87;106365;1281;22569;-90
2022/07/27 14:46:53;;;;;;;7.90;1.30;;;;;;;19.38;48.33;99082.48;106212;1281;22567;-90
2022/07/27 14:50:08;;;;;;;5.20;1.30;;;;;;;19.34;48.33;99083.46;105523;1281;24206;-90
2022/07/27 14:53:48;;;;;;;8.80;1.10;;;;;;;19.34;48.34;99087.13;106253;1281;24151;-89
2022/07/27 14:56:54;;;;;;;;;;;;;;;;;;;;;
2022/07/27 15:01:18;;;;;;;11.00;1.20;;;;;;;19.25;48.40;99087.91;105595;1285;25515;-91
2022/07/27 15:03:56;;;;;;;8.60;1.30;;;;;;;19.05;48.51;99088.57;105590;1289;22549;-92
2022/07/27 15:07:40;;;;;;;5.80;1.00;;;;;;;18.87;48.72;99095.66;105684;1290;24332;-90
2022/07/27 15:10:58;;;;;;;8.30;1.00;;;;;;;18.72;48.65;99093.73;105207;1290;22604;-92
2022/07/27 15:14:52;;;;;;;;;;;;;;;;;;;;;
2022/07/27 15:18:14;;;;;;;;;;;;;;;;;;;;;
2022/07/27 15:21:26;;;;;;;7.70;1.00;;;;;;;18.42;48.99;99078.05;104627;1300;22561;-88
2022/07/27 15:24:57;;;;;;;;;;;;;;;;;;;;;
2022/07/27 15:28:43;;;;;;;;;;;;;;;;;;;;;
2022/07/27 15:32:57;;;;;;;9.60;1.30;;;;;;;18.30;49.11;99073.48;103862;1303;22576;-90
2022/07/27 15:39:19;;;;;;;;;;;;;;;;;;;;;
2022/07/27 15:42:11;;;;;;;11.40;1.20;;;;;;;18.48;49.15;99053.68;103180;1308;23116;-92
2022/07/27 15:45:19;;;;;;;;;;;;;;;;;;;;;
2022/07/27 15:48:33;;;;;;;5.80;1.40;;;;;;;18.60;48.88;99044.27;104250;1301;22592;-90
2022/07/27 15:51:47;;;;;;;4.80;0.90;;;;;;;18.68;48.72;99043.86;103993;1301;22679;-90
2022/07/27 15:55:17;;;;;;;;;;;;;;;;;;;;;
2022/07/27 15:58:46;;;;;;;7.30;1.30;;;;;;;19.19;49.12;99050.02;104111;1301;23041;-91
2022/07/27 16:01:58;;;;;;;8.10;1.00;;;;;;;20.02;49.13;99047.81;104416;1301;22585;-90
2022/07/27 16:05:34;;;;;;;;;;;;;;;;;;;;;